SUR4434 LMML-LEBL
Flight info
| Callsign | SUR4434 |
|---|---|
| Flight time | 1h 46m |
| Altitude | 40000 |
| Route | GZO DCT SONAK UM739 NIVAB M739 TABOT DCT OSTUR |
| Aircraft | A346/H-SDE2E3FGHIJ3J4J5M1RWXY/LB1D1 |
Departure
| Time | 2026-05-05 21:03 |
|---|---|
| Airport | Malta International Airport (LMML) |
Arrival
| Time | 2026-05-05 22:49 |
|---|---|
| Airport | Josep Tarradellas Barcelona-El Prat Airport (LEBL) |
| Time | Latitude | Longitude | Altitude | Speed | Heading |
|---|---|---|---|---|---|
| 2026-05-05 20:41 | 35.85175 | 14.48844 | 275 ft | 0 kts | 44° |
| 2026-05-05 20:55 | 35.85172 | 14.48840 | 275 ft | 2 kts | 42° |
| 2026-05-05 20:55 | 35.85160 | 14.48829 | 274 ft | 2 kts | 26° |
| 2026-05-05 20:55 | 35.85146 | 14.48823 | 274 ft | 2 kts | 12° |
| 2026-05-05 20:56 | 35.85131 | 14.48821 | 274 ft | 2 kts | 360° |
| 2026-05-05 20:56 | 35.85117 | 14.48822 | 274 ft | 2 kts | 347° |
| 2026-05-05 20:56 | 35.85103 | 14.48828 | 274 ft | 2 kts | 334° |
| 2026-05-05 20:56 | 35.85090 | 14.48837 | 273 ft | 2 kts | 321° |
| 2026-05-05 20:57 | 35.85079 | 14.48850 | 273 ft | 2 kts | 311° |
| 2026-05-05 20:57 | 35.85070 | 14.48864 | 272 ft | 2 kts | 311° |
| 2026-05-05 20:57 | 35.85059 | 14.48877 | 272 ft | 2 kts | 313° |
| 2026-05-05 20:57 | 35.85049 | 14.48890 | 272 ft | 2 kts | 313° |
| 2026-05-05 20:58 | 35.85038 | 14.48904 | 271 ft | 2 kts | 313° |
| 2026-05-05 20:58 | 35.85028 | 14.48917 | 271 ft | 2 kts | 313° |
| 2026-05-05 20:58 | 35.85018 | 14.48931 | 270 ft | 2 kts | 313° |
| 2026-05-05 20:58 | 35.85007 | 14.48944 | 269 ft | 2 kts | 313° |
| 2026-05-05 20:59 | 35.85002 | 14.48951 | 269 ft | 0 kts | 313° |
| 2026-05-05 21:00 | 35.85004 | 14.48949 | 269 ft | 1 kts | 313° |
| 2026-05-05 21:00 | 35.85046 | 14.48892 | 272 ft | 16 kts | 310° |
| 2026-05-05 21:00 | 35.85149 | 14.48764 | 276 ft | 20 kts | 315° |
| 2026-05-05 21:01 | 35.85255 | 14.48635 | 277 ft | 22 kts | 315° |
| 2026-05-05 21:01 | 35.85372 | 14.48493 | 277 ft | 25 kts | 315° |
| 2026-05-05 21:01 | 35.85493 | 14.48346 | 275 ft | 23 kts | 316° |
| 2026-05-05 21:01 | 35.85596 | 14.48239 | 273 ft | 20 kts | 322° |
| 2026-05-05 21:02 | 35.85661 | 14.48122 | 271 ft | 16 kts | 272° |
| 2026-05-05 21:02 | 35.85663 | 14.47979 | 273 ft | 14 kts | 263° |
| 2026-05-05 21:02 | 35.85608 | 14.47939 | 273 ft | 11 kts | 157° |
| 2026-05-05 21:02 | 35.85513 | 14.48053 | 273 ft | 41 kts | 132° |
| 2026-05-05 21:03 | 35.85104 | 14.48557 | 276 ft | 122 kts | 134° |
| 2026-05-05 21:03 | 35.84354 | 14.49472 | 422 ft | 171 kts | 134° |
| 2026-05-05 21:03 | 35.83493 | 14.50493 | 1140 ft | 176 kts | 136° |
| 2026-05-05 21:03 | 35.82461 | 14.51269 | 1923 ft | 183 kts | 166° |
| 2026-05-05 21:04 | 35.81182 | 14.51033 | 2603 ft | 201 kts | 205° |
| 2026-05-05 21:04 | 35.80197 | 14.49709 | 3171 ft | 225 kts | 236° |
| 2026-05-05 21:04 | 35.79359 | 14.47988 | 3768 ft | 248 kts | 239° |
| 2026-05-05 21:04 | 35.78491 | 14.46059 | 4446 ft | 268 kts | 239° |
| 2026-05-05 21:05 | 35.77551 | 14.44056 | 5496 ft | 274 kts | 238° |
| 2026-05-05 21:05 | 35.76810 | 14.41954 | 6574 ft | 279 kts | 260° |
| 2026-05-05 21:05 | 35.76980 | 14.39605 | 7668 ft | 284 kts | 288° |
| 2026-05-05 21:05 | 35.77790 | 14.37378 | 8740 ft | 287 kts | 293° |
| 2026-05-05 21:06 | 35.78623 | 14.35156 | 9537 ft | 289 kts | 293° |
| 2026-05-05 21:06 | 35.79500 | 14.32946 | 10316 ft | 294 kts | 302° |
| 2026-05-05 21:06 | 35.80963 | 14.31161 | 11096 ft | 308 kts | 327° |
| 2026-05-05 21:06 | 35.82949 | 14.30056 | 11905 ft | 320 kts | 338° |
| 2026-05-05 21:07 | 35.85080 | 14.29159 | 12515 ft | 337 kts | 340° |
| 2026-05-05 21:07 | 35.87366 | 14.28200 | 13045 ft | 356 kts | 339° |
| 2026-05-05 21:07 | 35.89738 | 14.27153 | 13603 ft | 372 kts | 338° |
| 2026-05-05 21:07 | 35.92186 | 14.26029 | 14448 ft | 379 kts | 337° |
| 2026-05-05 21:08 | 35.94675 | 14.24860 | 15375 ft | 383 kts | 337° |
| 2026-05-05 21:08 | 35.97155 | 14.23680 | 16247 ft | 388 kts | 337° |
| 2026-05-05 21:08 | 35.99707 | 14.22461 | 17098 ft | 393 kts | 336° |
| 2026-05-05 21:08 | 36.02090 | 14.20896 | 17864 ft | 395 kts | 320° |
| 2026-05-05 21:09 | 36.03919 | 14.18414 | 18683 ft | 394 kts | 301° |
| 2026-05-05 21:09 | 36.05011 | 14.15342 | 19487 ft | 395 kts | 285° |
| 2026-05-05 21:09 | 36.05725 | 14.12074 | 20276 ft | 399 kts | 284° |
| 2026-05-05 21:09 | 36.06464 | 14.08735 | 21045 ft | 404 kts | 284° |
| 2026-05-05 21:10 | 36.07207 | 14.05413 | 21799 ft | 408 kts | 284° |
| 2026-05-05 21:10 | 36.07966 | 14.02032 | 22551 ft | 412 kts | 284° |
| 2026-05-05 21:10 | 36.08738 | 13.98601 | 23254 ft | 416 kts | 284° |
| 2026-05-05 21:10 | 36.09510 | 13.95176 | 23941 ft | 421 kts | 284° |
| 2026-05-05 21:11 | 36.10302 | 13.91660 | 24622 ft | 425 kts | 284° |
| 2026-05-05 21:11 | 36.11092 | 13.88155 | 25299 ft | 429 kts | 284° |
| 2026-05-05 21:11 | 36.11897 | 13.84575 | 25960 ft | 433 kts | 284° |
| 2026-05-05 21:11 | 36.12702 | 13.80994 | 26601 ft | 437 kts | 284° |
| 2026-05-05 21:12 | 36.13515 | 13.77371 | 27241 ft | 440 kts | 284° |
| 2026-05-05 21:12 | 36.14337 | 13.73701 | 27862 ft | 444 kts | 284° |
| 2026-05-05 21:12 | 36.15151 | 13.70058 | 28444 ft | 448 kts | 284° |
| 2026-05-05 21:12 | 36.15984 | 13.66326 | 29019 ft | 452 kts | 284° |
| 2026-05-05 21:13 | 36.16819 | 13.62578 | 29594 ft | 455 kts | 285° |
| 2026-05-05 21:13 | 36.17662 | 13.58788 | 30165 ft | 458 kts | 284° |
| 2026-05-05 21:13 | 36.18504 | 13.55006 | 30814 ft | 459 kts | 285° |
| 2026-05-05 21:13 | 36.19338 | 13.51249 | 31673 ft | 455 kts | 284° |
| 2026-05-05 21:14 | 36.20173 | 13.47491 | 32603 ft | 448 kts | 284° |
| 2026-05-05 21:14 | 36.20987 | 13.43809 | 33472 ft | 443 kts | 284° |
| 2026-05-05 21:14 | 36.21791 | 13.40174 | 34264 ft | 440 kts | 284° |
| 2026-05-05 21:14 | 36.22593 | 13.36536 | 35039 ft | 437 kts | 284° |
| 2026-05-05 21:15 | 36.23378 | 13.32967 | 35779 ft | 434 kts | 284° |
| 2026-05-05 21:15 | 36.24166 | 13.29380 | 36490 ft | 431 kts | 283° |
| 2026-05-05 21:15 | 36.24940 | 13.25850 | 37138 ft | 428 kts | 283° |
| 2026-05-05 21:15 | 36.25715 | 13.22315 | 37741 ft | 426 kts | 283° |
| 2026-05-05 21:16 | 36.26481 | 13.18811 | 38250 ft | 424 kts | 283° |
| 2026-05-05 21:16 | 36.27251 | 13.15282 | 38678 ft | 425 kts | 283° |
| 2026-05-05 21:16 | 36.28022 | 13.11746 | 38997 ft | 427 kts | 283° |
| 2026-05-05 21:16 | 36.28792 | 13.08204 | 39305 ft | 429 kts | 283° |
| 2026-05-05 21:17 | 36.29566 | 13.04641 | 39608 ft | 430 kts | 283° |
| 2026-05-05 21:17 | 36.30339 | 13.01077 | 39905 ft | 431 kts | 283° |
| 2026-05-05 21:17 | 36.31118 | 12.97477 | 40028 ft | 433 kts | 283° |
| 2026-05-05 21:17 | 36.31895 | 12.93883 | 40032 ft | 434 kts | 283° |
| 2026-05-05 21:18 | 36.33445 | 12.86706 | 40041 ft | 433 kts | 283° |
| 2026-05-05 21:18 | 36.34997 | 12.79496 | 40039 ft | 433 kts | 283° |
| 2026-05-05 21:19 | 36.36535 | 12.72325 | 40028 ft | 434 kts | 283° |
| 2026-05-05 21:19 | 36.38085 | 12.65082 | 40035 ft | 434 kts | 283° |
| 2026-05-05 21:20 | 36.39624 | 12.57848 | 40022 ft | 434 kts | 283° |
| 2026-05-05 21:20 | 36.41154 | 12.50644 | 40034 ft | 434 kts | 283° |
| 2026-05-05 21:21 | 36.42682 | 12.43428 | 40022 ft | 434 kts | 283° |
| 2026-05-05 21:21 | 36.44213 | 12.36171 | 40022 ft | 435 kts | 283° |
| 2026-05-05 21:22 | 36.45739 | 12.28919 | 40024 ft | 435 kts | 283° |
| 2026-05-05 21:22 | 36.47258 | 12.21670 | 40022 ft | 435 kts | 283° |
| 2026-05-05 21:23 | 36.48772 | 12.14424 | 40020 ft | 436 kts | 283° |
| 2026-05-05 21:23 | 36.50291 | 12.07128 | 40022 ft | 437 kts | 283° |
| 2026-05-05 21:24 | 36.51804 | 11.99838 | 40027 ft | 436 kts | 283° |
| 2026-05-05 21:24 | 36.53309 | 11.92563 | 40032 ft | 436 kts | 282° |
| 2026-05-05 21:25 | 36.54804 | 11.85307 | 40028 ft | 437 kts | 282° |
| 2026-05-05 21:25 | 36.56308 | 11.77978 | 40023 ft | 437 kts | 283° |
| 2026-05-05 21:26 | 36.57797 | 11.70702 | 40022 ft | 437 kts | 283° |
| 2026-05-05 21:26 | 36.59292 | 11.63369 | 40025 ft | 437 kts | 282° |
| 2026-05-05 21:27 | 36.61101 | 11.56163 | 40009 ft | 439 kts | 289° |
| 2026-05-05 21:27 | 36.63664 | 11.49278 | 40024 ft | 442 kts | 296° |
| 2026-05-05 21:28 | 36.66952 | 11.42831 | 40024 ft | 444 kts | 304° |
| 2026-05-05 21:28 | 36.70850 | 11.36808 | 40023 ft | 446 kts | 307° |
| 2026-05-05 21:29 | 36.74809 | 11.30920 | 40035 ft | 445 kts | 307° |
| 2026-05-05 21:29 | 36.78788 | 11.24992 | 40039 ft | 446 kts | 306° |
| 2026-05-05 21:30 | 36.82745 | 11.19074 | 40039 ft | 446 kts | 307° |
| 2026-05-05 21:30 | 36.86703 | 11.13143 | 40035 ft | 447 kts | 307° |
| 2026-05-05 21:31 | 36.90807 | 11.07243 | 40033 ft | 449 kts | 310° |
| 2026-05-05 21:31 | 36.95102 | 11.01612 | 40032 ft | 448 kts | 310° |
| 2026-05-05 21:32 | 36.99391 | 10.96007 | 40011 ft | 448 kts | 310° |
| 2026-05-05 21:32 | 37.03683 | 10.90377 | 40013 ft | 448 kts | 310° |
| 2026-05-05 21:33 | 37.07980 | 10.84727 | 40008 ft | 448 kts | 310° |
| 2026-05-05 21:33 | 37.12263 | 10.79085 | 39994 ft | 448 kts | 310° |
| 2026-05-05 21:34 | 37.16527 | 10.73456 | 39991 ft | 448 kts | 310° |
| 2026-05-05 21:34 | 37.20799 | 10.67805 | 39998 ft | 448 kts | 310° |
| 2026-05-05 21:35 | 37.25090 | 10.62121 | 39993 ft | 448 kts | 310° |
| 2026-05-05 21:35 | 37.29362 | 10.56461 | 39987 ft | 448 kts | 310° |
| 2026-05-05 21:36 | 37.33632 | 10.50788 | 39995 ft | 448 kts | 310° |
| 2026-05-05 21:36 | 37.37918 | 10.45076 | 39984 ft | 448 kts | 310° |
| 2026-05-05 21:37 | 37.42164 | 10.39406 | 39986 ft | 448 kts | 310° |
| 2026-05-05 21:37 | 37.46427 | 10.33710 | 39991 ft | 448 kts | 309° |
| 2026-05-05 21:38 | 37.50688 | 10.28015 | 39983 ft | 448 kts | 309° |
| 2026-05-05 21:38 | 37.54962 | 10.22303 | 39986 ft | 448 kts | 310° |
| 2026-05-05 21:39 | 37.59220 | 10.16601 | 39984 ft | 448 kts | 310° |
| 2026-05-05 21:39 | 37.63479 | 10.10879 | 39980 ft | 448 kts | 309° |
| 2026-05-05 21:40 | 37.67711 | 10.05180 | 39993 ft | 448 kts | 309° |
| 2026-05-05 21:40 | 37.71973 | 9.99424 | 39979 ft | 448 kts | 309° |
| 2026-05-05 21:41 | 37.76224 | 9.93683 | 39984 ft | 448 kts | 309° |
| 2026-05-05 21:41 | 37.80464 | 9.87948 | 39988 ft | 447 kts | 309° |
| 2026-05-05 21:42 | 37.84678 | 9.82228 | 39986 ft | 447 kts | 309° |
| 2026-05-05 21:42 | 37.88931 | 9.76439 | 39979 ft | 448 kts | 309° |
| 2026-05-05 21:43 | 37.93159 | 9.70673 | 39982 ft | 448 kts | 309° |
| 2026-05-05 21:43 | 37.97382 | 9.64902 | 39985 ft | 447 kts | 309° |
| 2026-05-05 21:44 | 38.01587 | 9.59152 | 39997 ft | 447 kts | 309° |
| 2026-05-05 21:44 | 38.05802 | 9.53390 | 40005 ft | 447 kts | 309° |
| 2026-05-05 21:45 | 38.10011 | 9.47621 | 39993 ft | 447 kts | 309° |
| 2026-05-05 21:45 | 38.14221 | 9.41831 | 39994 ft | 446 kts | 309° |
| 2026-05-05 21:46 | 38.18423 | 9.36041 | 39990 ft | 447 kts | 309° |
| 2026-05-05 21:46 | 38.22620 | 9.30245 | 40006 ft | 446 kts | 308° |
| 2026-05-05 21:47 | 38.26809 | 9.24458 | 39990 ft | 446 kts | 308° |
| 2026-05-05 21:47 | 38.31017 | 9.18642 | 40005 ft | 445 kts | 308° |
| 2026-05-05 21:48 | 38.35178 | 9.12880 | 40000 ft | 445 kts | 308° |
| 2026-05-05 21:48 | 38.39360 | 9.07071 | 39996 ft | 445 kts | 308° |
| 2026-05-05 21:49 | 38.43547 | 9.01242 | 39995 ft | 445 kts | 308° |
| 2026-05-05 21:49 | 38.47703 | 8.95442 | 39996 ft | 444 kts | 308° |
| 2026-05-05 21:50 | 38.51869 | 8.89618 | 39996 ft | 444 kts | 307° |
| 2026-05-05 21:50 | 38.56019 | 8.83816 | 39991 ft | 445 kts | 307° |
| 2026-05-05 21:51 | 38.60167 | 8.78008 | 39995 ft | 445 kts | 308° |
| 2026-05-05 21:51 | 38.64340 | 8.72149 | 39999 ft | 445 kts | 307° |
| 2026-05-05 21:52 | 38.70564 | 8.63382 | 39988 ft | 445 kts | 307° |
| 2026-05-05 21:53 | 38.74746 | 8.57470 | 39998 ft | 446 kts | 307° |
| 2026-05-05 21:53 | 38.78890 | 8.51610 | 39987 ft | 446 kts | 307° |
| 2026-05-05 21:54 | 38.83042 | 8.45732 | 39989 ft | 446 kts | 307° |
| 2026-05-05 21:54 | 38.87188 | 8.39848 | 39979 ft | 446 kts | 307° |
| 2026-05-05 21:55 | 38.91342 | 8.33936 | 39980 ft | 445 kts | 307° |
| 2026-05-05 21:55 | 38.95470 | 8.28046 | 39984 ft | 444 kts | 307° |
| 2026-05-05 21:56 | 38.99582 | 8.22169 | 39978 ft | 444 kts | 307° |
| 2026-05-05 21:56 | 39.03701 | 8.16266 | 39966 ft | 443 kts | 307° |
| 2026-05-05 21:57 | 39.07794 | 8.10389 | 39970 ft | 443 kts | 307° |
| 2026-05-05 21:57 | 39.11747 | 8.04386 | 39967 ft | 440 kts | 302° |
| 2026-05-05 21:58 | 39.15202 | 7.97927 | 39972 ft | 437 kts | 296° |
| 2026-05-05 21:58 | 39.18090 | 7.91101 | 39967 ft | 434 kts | 291° |
| 2026-05-05 21:59 | 39.20580 | 7.84032 | 39968 ft | 433 kts | 290° |
| 2026-05-05 21:59 | 39.23022 | 7.76980 | 39959 ft | 433 kts | 290° |
| 2026-05-05 22:00 | 39.25473 | 7.69895 | 39966 ft | 432 kts | 289° |
| 2026-05-05 22:00 | 39.27909 | 7.62839 | 39962 ft | 431 kts | 289° |
| 2026-05-05 22:01 | 39.30335 | 7.55800 | 39964 ft | 430 kts | 290° |
| 2026-05-05 22:01 | 39.32753 | 7.48765 | 39964 ft | 430 kts | 289° |
| 2026-05-05 22:02 | 39.35174 | 7.41700 | 39962 ft | 430 kts | 289° |
| 2026-05-05 22:02 | 39.37581 | 7.34661 | 39962 ft | 429 kts | 289° |
| 2026-05-05 22:03 | 39.39986 | 7.27610 | 39961 ft | 429 kts | 289° |
| 2026-05-05 22:03 | 39.42381 | 7.20573 | 39958 ft | 428 kts | 289° |
| 2026-05-05 22:04 | 39.44755 | 7.13575 | 39955 ft | 429 kts | 289° |
| 2026-05-05 22:04 | 39.47138 | 7.06535 | 39955 ft | 429 kts | 289° |
| 2026-05-05 22:05 | 39.49523 | 6.99481 | 39947 ft | 428 kts | 289° |
| 2026-05-05 22:05 | 39.51891 | 6.92449 | 39936 ft | 428 kts | 289° |
| 2026-05-05 22:06 | 39.54263 | 6.85395 | 39937 ft | 427 kts | 289° |
| 2026-05-05 22:06 | 39.56627 | 6.78343 | 39932 ft | 427 kts | 289° |
| 2026-05-05 22:07 | 39.58988 | 6.71287 | 39930 ft | 427 kts | 288° |
| 2026-05-05 22:07 | 39.61338 | 6.64244 | 39929 ft | 427 kts | 288° |
| 2026-05-05 22:08 | 39.63687 | 6.57186 | 39928 ft | 427 kts | 288° |
| 2026-05-05 22:08 | 39.66016 | 6.50170 | 39931 ft | 427 kts | 288° |
| 2026-05-05 22:09 | 39.68364 | 6.43083 | 39932 ft | 426 kts | 288° |
| 2026-05-05 22:09 | 39.70681 | 6.36069 | 39931 ft | 426 kts | 288° |
| 2026-05-05 22:10 | 39.73013 | 6.28985 | 39929 ft | 425 kts | 288° |
| 2026-05-05 22:10 | 39.75320 | 6.21962 | 39933 ft | 426 kts | 287° |
| 2026-05-05 22:11 | 39.77627 | 6.14930 | 39930 ft | 425 kts | 287° |
| 2026-05-05 22:11 | 39.79943 | 6.07843 | 39927 ft | 427 kts | 287° |
| 2026-05-05 22:12 | 39.82251 | 6.00769 | 39930 ft | 427 kts | 287° |
| 2026-05-05 22:12 | 39.84559 | 5.93675 | 39916 ft | 427 kts | 287° |
| 2026-05-05 22:13 | 39.86866 | 5.86568 | 39916 ft | 427 kts | 287° |
| 2026-05-05 22:13 | 39.89169 | 5.79456 | 39909 ft | 426 kts | 287° |
| 2026-05-05 22:14 | 39.91449 | 5.72394 | 39915 ft | 426 kts | 287° |
| 2026-05-05 22:14 | 39.93731 | 5.65309 | 39910 ft | 425 kts | 287° |
| 2026-05-05 22:15 | 39.96006 | 5.58229 | 39906 ft | 424 kts | 287° |
| 2026-05-05 22:15 | 39.98279 | 5.51133 | 39912 ft | 424 kts | 287° |
| 2026-05-05 22:16 | 40.00537 | 5.44066 | 39897 ft | 424 kts | 287° |
| 2026-05-05 22:16 | 40.02782 | 5.37019 | 39915 ft | 423 kts | 287° |
| 2026-05-05 22:17 | 40.05030 | 5.29948 | 39902 ft | 423 kts | 286° |
| 2026-05-05 22:17 | 40.07287 | 5.22831 | 39896 ft | 424 kts | 286° |
| 2026-05-05 22:18 | 40.09536 | 5.15718 | 39925 ft | 425 kts | 286° |
| 2026-05-05 22:18 | 40.11765 | 5.08657 | 39883 ft | 425 kts | 286° |
| 2026-05-05 22:19 | 40.14013 | 5.01514 | 39902 ft | 425 kts | 286° |
| 2026-05-05 22:19 | 40.16253 | 4.94370 | 39908 ft | 425 kts | 286° |
| 2026-05-05 22:20 | 40.18484 | 4.87247 | 39899 ft | 426 kts | 286° |
| 2026-05-05 22:20 | 40.20703 | 4.80141 | 39880 ft | 425 kts | 286° |
| 2026-05-05 22:21 | 40.22933 | 4.72981 | 39882 ft | 425 kts | 286° |
| 2026-05-05 22:21 | 40.25154 | 4.65829 | 39882 ft | 424 kts | 286° |
| 2026-05-05 22:21 | 40.26250 | 4.62291 | 39754 ft | 422 kts | 286° |
| 2026-05-05 22:22 | 40.27343 | 4.58761 | 39051 ft | 424 kts | 286° |
| 2026-05-05 22:22 | 40.28456 | 4.55161 | 38005 ft | 430 kts | 286° |
| 2026-05-05 22:22 | 40.29570 | 4.51549 | 37103 ft | 431 kts | 286° |
| 2026-05-05 22:22 | 40.30679 | 4.47960 | 36446 ft | 427 kts | 286° |
| 2026-05-05 22:23 | 40.31791 | 4.44359 | 35887 ft | 425 kts | 285° |
| 2026-05-05 22:23 | 40.32891 | 4.40786 | 35307 ft | 424 kts | 285° |
| 2026-05-05 22:23 | 40.33986 | 4.37224 | 34736 ft | 423 kts | 285° |
| 2026-05-05 22:23 | 40.35085 | 4.33642 | 34081 ft | 423 kts | 284° |
| 2026-05-05 22:24 | 40.36161 | 4.30118 | 33399 ft | 423 kts | 284° |
| 2026-05-05 22:24 | 40.37246 | 4.26566 | 32728 ft | 422 kts | 285° |
| 2026-05-05 22:24 | 40.38345 | 4.22963 | 32037 ft | 422 kts | 285° |
| 2026-05-05 22:24 | 40.39460 | 4.19461 | 31327 ft | 426 kts | 289° |
| 2026-05-05 22:25 | 40.41000 | 4.16052 | 30483 ft | 437 kts | 296° |
| 2026-05-05 22:25 | 40.42700 | 4.12810 | 29862 ft | 436 kts | 297° |
| 2026-05-05 22:25 | 40.44416 | 4.09574 | 29216 ft | 436 kts | 297° |
| 2026-05-05 22:25 | 40.46155 | 4.06290 | 28533 ft | 435 kts | 297° |
| 2026-05-05 22:26 | 40.47851 | 4.03077 | 27941 ft | 432 kts | 297° |
| 2026-05-05 22:26 | 40.49548 | 3.99848 | 27399 ft | 429 kts | 297° |
| 2026-05-05 22:26 | 40.51225 | 3.96652 | 26927 ft | 423 kts | 297° |
| 2026-05-05 22:26 | 40.52890 | 3.93470 | 26486 ft | 417 kts | 297° |
| 2026-05-05 22:27 | 40.54500 | 3.90387 | 26057 ft | 412 kts | 297° |
| 2026-05-05 22:27 | 40.56114 | 3.87286 | 25573 ft | 408 kts | 297° |
| 2026-05-05 22:27 | 40.57687 | 3.84260 | 25100 ft | 404 kts | 297° |
| 2026-05-05 22:27 | 40.59264 | 3.81224 | 24676 ft | 399 kts | 297° |
| 2026-05-05 22:28 | 40.60813 | 3.78239 | 24259 ft | 394 kts | 297° |
| 2026-05-05 22:28 | 40.62345 | 3.75281 | 23800 ft | 390 kts | 297° |
| 2026-05-05 22:28 | 40.63858 | 3.72353 | 23353 ft | 387 kts | 297° |
| 2026-05-05 22:28 | 40.65361 | 3.69447 | 22952 ft | 382 kts | 297° |
| 2026-05-05 22:29 | 40.66855 | 3.66555 | 22481 ft | 380 kts | 297° |
| 2026-05-05 22:29 | 40.68332 | 3.63693 | 21978 ft | 379 kts | 297° |
| 2026-05-05 22:29 | 40.69805 | 3.60831 | 21529 ft | 376 kts | 297° |
| 2026-05-05 22:29 | 40.71247 | 3.58035 | 21065 ft | 374 kts | 297° |
| 2026-05-05 22:30 | 40.72714 | 3.55183 | 20592 ft | 372 kts | 297° |
| 2026-05-05 22:30 | 40.74149 | 3.52389 | 20125 ft | 369 kts | 297° |
| 2026-05-05 22:30 | 40.75574 | 3.49614 | 19656 ft | 367 kts | 297° |
| 2026-05-05 22:30 | 40.77010 | 3.46817 | 19157 ft | 366 kts | 297° |
| 2026-05-05 22:31 | 40.78423 | 3.44057 | 18666 ft | 365 kts | 297° |
| 2026-05-05 22:31 | 40.79836 | 3.41297 | 18155 ft | 364 kts | 297° |
| 2026-05-05 22:31 | 40.81244 | 3.38546 | 17670 ft | 363 kts | 297° |
| 2026-05-05 22:31 | 40.82647 | 3.35801 | 17158 ft | 362 kts | 298° |
| 2026-05-05 22:32 | 40.84051 | 3.33045 | 16633 ft | 362 kts | 297° |
| 2026-05-05 22:32 | 40.85457 | 3.30291 | 16135 ft | 361 kts | 298° |
| 2026-05-05 22:32 | 40.86847 | 3.27564 | 15633 ft | 360 kts | 298° |
| 2026-05-05 22:32 | 40.88249 | 3.24811 | 15133 ft | 359 kts | 298° |
| 2026-05-05 22:33 | 40.89624 | 3.22112 | 14648 ft | 358 kts | 298° |
| 2026-05-05 22:33 | 40.91009 | 3.19393 | 14136 ft | 357 kts | 299° |
| 2026-05-05 22:33 | 40.92393 | 3.16669 | 13601 ft | 357 kts | 299° |
| 2026-05-05 22:33 | 40.93767 | 3.13962 | 13098 ft | 356 kts | 300° |
| 2026-05-05 22:34 | 40.95149 | 3.11241 | 12644 ft | 353 kts | 300° |
| 2026-05-05 22:34 | 40.96506 | 3.08566 | 12205 ft | 350 kts | 300° |
| 2026-05-05 22:34 | 40.97852 | 3.05908 | 11790 ft | 346 kts | 300° |
| 2026-05-05 22:34 | 40.99176 | 3.03294 | 11385 ft | 341 kts | 300° |
| 2026-05-05 22:35 | 41.00487 | 3.00702 | 10988 ft | 337 kts | 301° |
| 2026-05-05 22:35 | 41.01765 | 2.98171 | 10607 ft | 333 kts | 301° |
| 2026-05-05 22:35 | 41.03040 | 2.95647 | 10286 ft | 326 kts | 301° |
| 2026-05-05 22:35 | 41.04272 | 2.93206 | 10122 ft | 313 kts | 301° |
| 2026-05-05 22:36 | 41.05446 | 2.90885 | 10072 ft | 298 kts | 301° |
| 2026-05-05 22:36 | 41.06578 | 2.88641 | 10018 ft | 283 kts | 301° |
| 2026-05-05 22:36 | 41.07641 | 2.86532 | 9970 ft | 270 kts | 301° |
| 2026-05-05 22:36 | 41.08656 | 2.84514 | 9924 ft | 259 kts | 301° |
| 2026-05-05 22:37 | 41.09651 | 2.82536 | 9753 ft | 258 kts | 301° |
| 2026-05-05 22:37 | 41.10652 | 2.80535 | 9391 ft | 260 kts | 301° |
| 2026-05-05 22:37 | 41.11649 | 2.78544 | 9057 ft | 261 kts | 301° |
| 2026-05-05 22:37 | 41.12640 | 2.76565 | 8759 ft | 258 kts | 301° |
| 2026-05-05 22:38 | 41.13630 | 2.74589 | 8525 ft | 252 kts | 302° |
| 2026-05-05 22:38 | 41.14587 | 2.72681 | 8267 ft | 247 kts | 302° |
| 2026-05-05 22:38 | 41.15525 | 2.70810 | 7957 ft | 241 kts | 302° |
| 2026-05-05 22:38 | 41.16437 | 2.68987 | 7646 ft | 234 kts | 302° |
| 2026-05-05 22:39 | 41.17330 | 2.67200 | 7341 ft | 228 kts | 302° |
| 2026-05-05 22:39 | 41.18187 | 2.65483 | 7069 ft | 222 kts | 302° |
| 2026-05-05 22:39 | 41.19030 | 2.63799 | 6826 ft | 216 kts | 302° |
| 2026-05-05 22:39 | 41.19846 | 2.62164 | 6631 ft | 212 kts | 302° |
| 2026-05-05 22:40 | 41.20654 | 2.60541 | 6424 ft | 208 kts | 302° |
| 2026-05-05 22:40 | 41.21441 | 2.58959 | 6176 ft | 204 kts | 302° |
| 2026-05-05 22:40 | 41.22212 | 2.57415 | 5937 ft | 198 kts | 303° |
| 2026-05-05 22:40 | 41.22961 | 2.55910 | 5681 ft | 193 kts | 303° |
| 2026-05-05 22:41 | 41.23697 | 2.54433 | 5450 ft | 188 kts | 303° |
| 2026-05-05 22:41 | 41.24408 | 2.53008 | 5219 ft | 183 kts | 302° |
| 2026-05-05 22:41 | 41.25102 | 2.51612 | 5000 ft | 180 kts | 302° |
| 2026-05-05 22:41 | 41.25791 | 2.50223 | 4793 ft | 181 kts | 303° |
| 2026-05-05 22:42 | 41.26487 | 2.48823 | 4568 ft | 180 kts | 303° |
| 2026-05-05 22:42 | 41.27170 | 2.47448 | 4358 ft | 179 kts | 303° |
| 2026-05-05 22:42 | 41.27860 | 2.46057 | 4140 ft | 181 kts | 303° |
| 2026-05-05 22:42 | 41.28556 | 2.44653 | 3933 ft | 180 kts | 303° |
| 2026-05-05 22:43 | 41.29243 | 2.43269 | 3729 ft | 179 kts | 303° |
| 2026-05-05 22:43 | 41.29929 | 2.41887 | 3520 ft | 180 kts | 303° |
| 2026-05-05 22:43 | 41.30612 | 2.40508 | 3313 ft | 179 kts | 303° |
| 2026-05-05 22:43 | 41.31303 | 2.39113 | 3103 ft | 179 kts | 303° |
| 2026-05-05 22:44 | 41.31988 | 2.37729 | 2909 ft | 179 kts | 303° |
| 2026-05-05 22:44 | 41.32664 | 2.36364 | 2722 ft | 179 kts | 304° |
| 2026-05-05 22:44 | 41.33347 | 2.34984 | 2546 ft | 177 kts | 303° |
| 2026-05-05 22:44 | 41.34029 | 2.33607 | 2357 ft | 177 kts | 303° |
| 2026-05-05 22:45 | 41.34702 | 2.32243 | 2335 ft | 183 kts | 303° |
| 2026-05-05 22:45 | 41.35373 | 2.30804 | 2300 ft | 177 kts | 294° |
| 2026-05-05 22:45 | 41.35554 | 2.29256 | 2244 ft | 169 kts | 268° |
| 2026-05-05 22:45 | 41.35257 | 2.27749 | 2269 ft | 171 kts | 251° |
| 2026-05-05 22:46 | 41.34762 | 2.26317 | 2308 ft | 171 kts | 247° |
| 2026-05-05 22:46 | 41.34238 | 2.24899 | 2312 ft | 171 kts | 246° |
| 2026-05-05 22:46 | 41.33733 | 2.23498 | 2134 ft | 161 kts | 248° |
| 2026-05-05 22:46 | 41.33278 | 2.22190 | 1917 ft | 152 kts | 248° |
| 2026-05-05 22:47 | 41.32843 | 2.20916 | 1717 ft | 152 kts | 249° |
| 2026-05-05 22:47 | 41.32407 | 2.19634 | 1524 ft | 151 kts | 248° |
| 2026-05-05 22:47 | 41.31984 | 2.18402 | 1319 ft | 143 kts | 248° |
| 2026-05-05 22:47 | 41.31575 | 2.17204 | 1141 ft | 143 kts | 248° |
| 2026-05-05 22:48 | 41.31157 | 2.16011 | 952 ft | 143 kts | 247° |
| 2026-05-05 22:48 | 41.30753 | 2.14814 | 757 ft | 142 kts | 249° |
| 2026-05-05 22:48 | 41.30358 | 2.13614 | 565 ft | 142 kts | 246° |
| 2026-05-05 22:48 | 41.29934 | 2.12426 | 387 ft | 142 kts | 247° |
| 2026-05-05 22:49 | 41.29523 | 2.11219 | 184 ft | 142 kts | 247° |
| 2026-05-05 22:49 | 41.29118 | 2.10042 | 30 ft | 140 kts | 246° |
| 2026-05-05 22:49 | 41.28793 | 2.09069 | 28 ft | 82 kts | 246° |
| 2026-05-05 22:49 | 41.28631 | 2.08600 | 28 ft | 45 kts | 244° |
| 2026-05-05 22:50 | 41.28552 | 2.08319 | 28 ft | 27 kts | 259° |
| 2026-05-05 22:50 | 41.28548 | 2.08128 | 28 ft | 8 kts | 274° |
| 2026-05-05 22:50 | 41.28548 | 2.08118 | 28 ft | 0 kts | 274° |
| 2026-05-05 22:50 | 41.28548 | 2.08115 | 28 ft | 1 kts | 274° |
| 2026-05-05 22:51 | 41.28553 | 2.08018 | 28 ft | 16 kts | 275° |
| 2026-05-05 22:51 | 41.28555 | 2.07852 | 28 ft | 19 kts | 257° |
| 2026-05-05 22:51 | 41.28551 | 2.07740 | 28 ft | 10 kts | 308° |
| 2026-05-05 22:51 | 41.28613 | 2.07669 | 28 ft | 13 kts | 322° |
| 2026-05-05 22:52 | 41.28660 | 2.07631 | 28 ft | 1 kts | 333° |